createdAt,value
2018-04-08T00:00:51.989Z,74.54
2018-04-08T00:01:52.074Z,74.26
2018-04-08T00:02:52.198Z,74.35
2018-04-08T00:03:52.295Z,74.92
2018-04-08T00:04:52.388Z,74.63
2018-04-08T00:05:52.466Z,74.73
2018-04-08T00:06:52.549Z,75.11
2018-04-08T00:07:52.679Z,74.63
2018-04-08T00:08:52.783Z,74.54
2018-04-08T00:09:52.912Z,75.30
2018-04-08T00:10:52.989Z,74.73
2018-04-08T00:11:53.082Z,75.40
2018-04-08T00:12:53.193Z,75.26
2018-04-08T00:13:53.298Z,75.26
2018-04-08T00:14:53.387Z,75.36
2018-04-08T00:15:53.483Z,75.30
2018-04-08T00:16:53.579Z,74.79
2018-04-08T00:17:53.657Z,75.36
2018-04-08T00:18:53.738Z,74.79
2018-04-08T00:19:53.836Z,75.40
2018-04-08T00:20:53.958Z,75.36
2018-04-08T00:21:54.064Z,75.17
2018-04-08T00:22:54.195Z,75.36
2018-04-08T00:23:54.315Z,74.98
2018-04-08T00:24:54.428Z,75.45
2018-04-08T00:25:54.509Z,75.55
2018-04-08T00:26:54.608Z,75.55
2018-04-08T00:27:54.690Z,75.64
2018-04-08T00:28:54.778Z,75.45
2018-04-08T00:29:54.873Z,75.55
2018-04-08T00:30:54.970Z,75.64
2018-04-08T00:31:55.065Z,75.64
2018-04-08T00:32:55.182Z,75.74
2018-04-08T00:33:55.281Z,75.84
2018-04-08T00:34:55.381Z,75.64
2018-04-08T00:35:55.461Z,76.21
2018-04-08T00:36:55.563Z,76.03
2018-04-08T00:37:55.673Z,76.12
2018-04-08T00:38:55.761Z,76.31
2018-04-08T00:39:55.850Z,76.31
2018-04-08T00:40:55.951Z,76.50
2018-04-08T00:41:56.051Z,76.31
2018-04-08T00:42:56.153Z,76.12
2018-04-08T00:43:56.257Z,76.12
2018-04-08T00:44:56.338Z,76.31
2018-04-08T00:45:56.416Z,76.50
2018-04-08T00:46:56.506Z,76.21
2018-04-08T00:47:56.582Z,76.31
2018-04-08T00:48:56.677Z,76.31
2018-04-08T00:49:56.792Z,76.12
2018-04-08T00:50:56.880Z,76.12
2018-04-08T00:51:56.960Z,76.21
2018-04-08T00:52:57.048Z,76.40
2018-04-08T00:53:57.132Z,75.74
2018-04-08T00:54:57.217Z,76.12
2018-04-08T00:55:57.325Z,75.93
2018-04-08T00:56:57.409Z,75.84
2018-04-08T00:57:57.501Z,76.50
2018-04-08T00:58:57.585Z,76.40
2018-04-08T00:59:57.674Z,76.40
2018-04-08T01:00:57.750Z,76.31
2018-04-08T01:01:57.834Z,75.64
2018-04-08T01:02:57.925Z,75.93
2018-04-08T01:03:58.012Z,75.93
2018-04-08T01:04:58.113Z,76.21
2018-04-08T01:05:58.199Z,76.12
2018-04-08T01:06:58.301Z,76.12
2018-04-08T01:07:58.388Z,76.21
2018-04-08T01:08:58.473Z,76.50
2018-04-08T01:09:58.558Z,76.50
2018-04-08T01:10:58.639Z,76.56
2018-04-08T01:11:58.733Z,76.46
2018-04-08T01:12:58.870Z,76.75
2018-04-08T01:13:58.916Z,77.03
2018-04-08T01:14:59.004Z,76.46
2018-04-08T01:15:59.085Z,76.46
2018-04-08T01:16:59.206Z,76.84
2018-04-08T01:17:59.286Z,76.56
2018-04-08T01:18:59.369Z,76.65
2018-04-08T01:19:59.506Z,76.65
2018-04-08T01:20:59.607Z,76.65
2018-04-08T01:21:59.689Z,76.65
2018-04-08T01:22:59.782Z,76.75
2018-04-08T01:23:59.857Z,76.75
2018-04-08T01:24:59.953Z,77.03
2018-04-08T01:26:00.052Z,76.65
2018-04-08T01:27:00.144Z,77.41
2018-04-08T01:28:00.232Z,76.75
2018-04-08T01:29:00.366Z,77.03
2018-04-08T01:30:00.451Z,76.65
2018-04-08T01:31:00.541Z,76.56
2018-04-08T01:32:00.635Z,76.37
2018-04-08T01:33:00.720Z,76.65
2018-04-08T01:34:00.809Z,76.65
2018-04-08T01:35:00.927Z,76.84
2018-04-08T01:36:01.010Z,76.75
2018-04-08T01:37:01.092Z,76.93
2018-04-08T01:38:01.181Z,77.41
2018-04-08T01:39:01.258Z,77.12
2018-04-08T01:40:01.351Z,77.31
2018-04-08T01:41:01.459Z,77.22
2018-04-08T01:42:01.555Z,77.41
2018-04-08T01:43:01.626Z,77.60
2018-04-08T01:44:01.715Z,77.41
2018-04-08T01:45:01.806Z,77.79
2018-04-08T01:46:01.913Z,77.89
2018-04-08T01:47:01.993Z,77.41
2018-04-08T01:48:02.076Z,77.51
2018-04-08T01:49:02.172Z,77.41
2018-04-08T01:50:02.262Z,77.03
2018-04-08T01:51:02.352Z,77.60
2018-04-08T01:52:02.436Z,77.03
2018-04-08T01:53:02.536Z,78.08
2018-04-08T01:54:02.652Z,77.60
2018-04-08T01:55:02.734Z,77.79
2018-04-08T01:56:02.810Z,77.51
2018-04-08T01:57:02.897Z,78.27
2018-04-08T01:58:02.986Z,78.08
2018-04-08T01:59:03.081Z,77.79
2018-04-08T02:00:03.164Z,78.08
2018-04-08T02:01:03.258Z,77.79
2018-04-08T02:02:03.343Z,77.79
2018-04-08T02:03:03.447Z,78.17
2018-04-08T02:04:03.540Z,77.98
2018-04-08T02:05:03.623Z,78.36
2018-04-08T02:06:03.724Z,78.17
2018-04-08T02:07:03.802Z,78.93
2018-04-08T02:08:03.909Z,78.55
2018-04-08T02:09:04.001Z,78.08
2018-04-08T02:10:04.093Z,78.17
2018-04-08T02:11:04.184Z,77.98
2018-04-08T02:12:04.278Z,78.27
2018-04-08T02:13:04.372Z,77.89
2018-04-08T02:14:04.462Z,78.27
2018-04-08T02:15:04.553Z,78.55
2018-04-08T02:16:04.644Z,78.08
2018-04-08T02:17:04.735Z,77.98
2018-04-08T02:18:04.826Z,78.08
2018-04-08T02:19:04.921Z,78.17
2018-04-08T02:20:05.006Z,78.13
2018-04-08T02:21:05.119Z,78.36
2018-04-08T02:22:05.217Z,78.03
2018-04-08T02:23:05.306Z,78.45
2018-04-08T02:24:05.398Z,78.42
2018-04-08T02:25:05.482Z,78.23
2018-04-08T02:26:05.586Z,78.70
2018-04-08T02:27:05.677Z,78.51
2018-04-08T02:28:05.775Z,78.51
2018-04-08T02:29:05.862Z,78.32
2018-04-08T02:30:05.957Z,78.23
2018-04-08T02:31:06.049Z,78.36
2018-04-08T02:32:06.143Z,78.61
2018-04-08T02:33:06.225Z,79.08
2018-04-08T02:34:06.314Z,78.99
2018-04-08T02:35:06.410Z,79.08
2018-04-08T02:36:06.495Z,78.89
2018-04-08T02:37:06.586Z,79.17
2018-04-08T02:38:06.677Z,78.99
2018-04-08T02:39:06.767Z,78.89
2018-04-08T02:40:06.864Z,79.17
2018-04-08T02:41:06.947Z,79.08
2018-04-08T02:42:07.037Z,78.70
2018-04-08T02:43:07.130Z,79.17
2018-04-08T02:44:07.220Z,78.99
2018-04-08T02:45:07.313Z,79.08
2018-04-08T02:46:07.405Z,79.08
2018-04-08T02:47:07.491Z,78.80
2018-04-08T02:48:07.585Z,78.99
2018-04-08T02:49:07.675Z,79.17
2018-04-08T02:50:07.776Z,79.27
2018-04-08T02:51:07.868Z,79.36
2018-04-08T02:52:07.954Z,79.46
2018-04-08T02:53:08.054Z,79.27
2018-04-08T02:54:08.144Z,79.46
2018-04-08T02:55:08.235Z,79.55
2018-04-08T02:56:08.327Z,79.27
2018-04-08T02:57:08.416Z,79.27
2018-04-08T02:58:08.505Z,79.17
2018-04-08T02:59:08.599Z,79.27
2018-04-08T03:00:08.686Z,79.36
2018-04-08T03:01:08.780Z,79.17
2018-04-08T03:02:08.869Z,79.17
2018-04-08T03:03:08.962Z,78.89
2018-04-08T03:04:09.052Z,78.89
2018-04-08T03:05:09.144Z,79.17
2018-04-08T03:06:09.235Z,79.74
2018-04-08T03:07:09.330Z,79.65
2018-04-08T03:08:09.421Z,79.46
2018-04-08T03:09:09.513Z,79.08
2018-04-08T03:10:09.604Z,79.46
2018-04-08T03:11:09.695Z,79.36
2018-04-08T03:12:09.784Z,78.99
2018-04-08T03:13:09.877Z,79.08
2018-04-08T03:14:09.971Z,79.08
2018-04-08T03:15:10.063Z,79.08
2018-04-08T03:16:10.158Z,79.17
2018-04-08T03:17:10.261Z,79.27
2018-04-08T03:18:10.352Z,79.08
2018-04-08T03:19:10.445Z,79.36
2018-04-08T03:20:10.537Z,79.17
2018-04-08T03:21:10.624Z,79.27
2018-04-08T03:22:10.720Z,79.36
2018-04-08T03:23:10.807Z,79.55
2018-04-08T03:24:10.896Z,79.08
2018-04-08T03:25:10.986Z,79.74
2018-04-08T03:26:11.076Z,79.94
2018-04-08T03:27:11.166Z,79.94
2018-04-08T03:28:11.256Z,79.65
2018-04-08T03:29:11.352Z,79.94
2018-04-08T03:30:11.446Z,79.46
2018-04-08T03:31:11.535Z,79.46
2018-04-08T03:32:11.626Z,79.74
2018-04-08T03:33:11.715Z,79.55
2018-04-08T03:34:11.803Z,79.94
2018-04-08T03:35:11.899Z,79.74
2018-04-08T03:36:11.992Z,80.13
2018-04-08T03:37:12.079Z,80.32
2018-04-08T03:38:12.172Z,80.41
2018-04-08T03:39:12.264Z,80.32
2018-04-08T03:40:12.356Z,80.27
2018-04-08T03:41:12.450Z,80.60
2018-04-08T03:42:12.540Z,80.60
2018-04-08T03:43:12.630Z,80.84
2018-04-08T03:44:12.722Z,81.26
2018-04-08T03:45:12.812Z,80.84
2018-04-08T03:46:12.901Z,80.65
2018-04-08T03:47:12.990Z,81.32
2018-04-08T03:48:13.082Z,81.07
2018-04-08T03:49:13.174Z,80.75
2018-04-08T03:50:13.262Z,80.84
2018-04-08T03:51:13.355Z,80.94
2018-04-08T03:52:13.445Z,81.26
2018-04-08T03:53:13.536Z,81.17
2018-04-08T03:54:13.626Z,80.88
2018-04-08T03:55:13.712Z,80.79
2018-04-08T03:56:13.806Z,81.13
2018-04-08T03:57:13.898Z,80.69
2018-04-08T03:58:13.991Z,80.51
2018-04-08T03:59:14.079Z,80.41
2018-04-08T04:00:14.172Z,80.27
2018-04-08T04:01:14.263Z,80.27
2018-04-08T04:02:14.347Z,80.32
2018-04-08T04:03:14.438Z,80.32
2018-04-08T04:04:14.528Z,80.60
2018-04-08T04:05:14.615Z,80.60
2018-04-08T04:06:14.708Z,80.65
2018-04-08T04:07:14.798Z,80.65
2018-04-08T04:08:14.888Z,80.37
2018-04-08T04:09:14.989Z,80.46
2018-04-08T04:10:15.086Z,80.65
2018-04-08T04:11:15.178Z,80.65
2018-04-08T04:12:15.271Z,80.46
2018-04-08T04:13:15.359Z,80.56
2018-04-08T04:14:15.453Z,80.46
2018-04-08T04:15:15.540Z,80.37
2018-04-08T04:16:15.630Z,80.46
2018-04-08T04:17:15.718Z,80.46
2018-04-08T04:18:15.812Z,80.94
2018-04-08T04:19:15.903Z,80.94
2018-04-08T04:20:15.996Z,80.75
2018-04-08T04:21:16.088Z,80.84
2018-04-08T04:22:16.180Z,80.84
2018-04-08T04:23:16.273Z,80.84
2018-04-08T04:24:16.363Z,80.94
2018-04-08T04:25:16.455Z,80.75
2018-04-08T04:26:16.546Z,80.65
2018-04-08T04:27:16.636Z,80.94
2018-04-08T04:28:16.723Z,80.84
2018-04-08T04:29:16.815Z,80.56
2018-04-08T04:30:16.905Z,80.46
2018-04-08T04:31:16.995Z,80.27
2018-04-08T04:32:17.085Z,80.56
2018-04-08T04:33:17.178Z,80.75
2018-04-08T04:34:17.269Z,80.75
2018-04-08T04:35:17.360Z,80.46
2018-04-08T04:36:17.450Z,80.46
2018-04-08T04:37:17.542Z,80.65
2018-04-08T04:38:17.630Z,81.32
2018-04-08T04:39:17.716Z,81.04
2018-04-08T04:40:17.805Z,80.75
2018-04-08T04:41:17.901Z,81.13
2018-04-08T04:42:17.980Z,81.13
2018-04-08T04:43:18.069Z,81.41
2018-04-08T04:44:18.160Z,81.04
2018-04-08T04:45:18.247Z,80.75
2018-04-08T04:46:18.337Z,80.84
2018-04-08T04:47:18.425Z,80.65
2018-04-08T04:48:18.516Z,80.65
2018-04-08T04:49:18.617Z,81.04
2018-04-08T04:50:18.709Z,80.94
2018-04-08T04:51:18.802Z,80.75
2018-04-08T04:52:18.898Z,80.56
2018-04-08T04:53:18.986Z,81.04
2018-04-08T04:54:19.081Z,80.94
2018-04-08T04:55:19.164Z,80.94
2018-04-08T04:56:19.254Z,80.46
2018-04-08T04:57:19.347Z,80.46
2018-04-08T04:58:19.437Z,80.84
2018-04-08T04:59:19.528Z,80.27
2018-04-08T05:00:19.619Z,80.27
2018-04-08T05:01:19.714Z,80.46
2018-04-08T05:02:19.800Z,80.56
2018-04-08T05:03:19.889Z,80.46
2018-04-08T05:04:19.979Z,80.56
2018-04-08T05:05:20.064Z,80.46
2018-04-08T05:06:20.159Z,80.46
2018-04-08T05:07:20.250Z,80.75
2018-04-08T05:08:20.340Z,80.65
2018-04-08T05:09:20.427Z,80.84
2018-04-08T05:10:20.518Z,80.27
2018-04-08T05:11:20.610Z,80.27
2018-04-08T05:12:20.700Z,80.46
2018-04-08T05:13:20.790Z,80.75
2018-04-08T05:14:20.880Z,80.56
2018-04-08T05:15:20.970Z,80.75
2018-04-08T05:16:21.065Z,80.75
2018-04-08T05:17:21.149Z,80.65
2018-04-08T05:18:21.228Z,80.37
2018-04-08T05:19:21.317Z,79.99
2018-04-08T05:20:22.289Z,80.27
2018-04-08T05:21:21.512Z,80.08
2018-04-08T05:22:21.614Z,80.27
2018-04-08T05:23:21.790Z,80.46
2018-04-08T05:24:21.744Z,80.27
2018-04-08T05:25:21.833Z,80.22
2018-04-08T05:26:21.918Z,80.32
2018-04-08T05:27:22.012Z,79.80
2018-04-08T05:28:22.103Z,80.13
2018-04-08T05:29:22.213Z,80.51
2018-04-08T05:30:22.298Z,79.94
2018-04-08T05:31:22.380Z,79.74
2018-04-08T05:32:22.460Z,79.94
2018-04-08T05:33:22.546Z,79.84
2018-04-08T05:34:22.652Z,79.55
2018-04-08T05:35:22.729Z,79.55
2018-04-08T05:36:22.803Z,79.55
2018-04-08T05:37:22.914Z,79.55
2018-04-08T05:38:22.998Z,79.65
2018-04-08T05:39:23.100Z,79.55
2018-04-08T05:40:23.172Z,79.55
2018-04-08T05:41:23.276Z,79.84
2018-04-08T05:42:23.385Z,80.03
2018-04-08T05:43:23.548Z,80.13
2018-04-08T05:44:23.576Z,79.74
2018-04-08T05:45:23.662Z,79.55
2018-04-08T05:46:23.794Z,79.94
2018-04-08T05:47:23.952Z,79.55
2018-04-08T05:48:23.953Z,79.46
2018-04-08T05:49:24.032Z,79.17
2018-04-08T05:50:24.148Z,79.36
2018-04-08T05:51:24.239Z,79.55
2018-04-08T05:52:24.339Z,79.46
2018-04-08T05:53:24.434Z,79.36
2018-04-08T05:54:24.529Z,79.27
2018-04-08T05:55:24.614Z,79.08
2018-04-08T05:56:24.700Z,79.55
2018-04-08T05:57:24.846Z,79.84
2018-04-08T05:58:24.924Z,79.27
2018-04-08T05:59:24.998Z,79.31
2018-04-08T06:00:25.090Z,79.50
2018-04-08T06:01:25.178Z,79.17
2018-04-08T06:02:25.254Z,79.41
2018-04-08T06:03:25.357Z,79.03
2018-04-08T06:04:25.476Z,78.55
2018-04-08T06:05:25.586Z,78.83
2018-04-08T06:06:25.726Z,78.08
2018-04-08T06:07:25.802Z,77.98
2018-04-08T06:08:25.876Z,77.70
2018-04-08T06:09:25.961Z,77.98
2018-04-08T06:10:26.060Z,77.31
2018-04-08T06:11:26.162Z,77.60
2018-04-08T06:12:26.296Z,77.22
2018-04-08T06:13:26.388Z,77.22
2018-04-08T06:14:26.481Z,77.03
2018-04-08T06:15:26.574Z,76.75
2018-04-08T06:16:26.665Z,76.97
2018-04-08T06:17:26.747Z,75.84
2018-04-08T06:18:26.851Z,75.40
2018-04-08T06:19:26.948Z,73.53
2018-04-08T06:20:27.073Z,72.24
2018-04-08T06:21:27.160Z,70.62
2018-04-08T06:22:27.287Z,69.70
2018-04-08T06:23:27.377Z,68.94
2018-04-08T06:24:27.499Z,68.08
2018-04-08T06:25:27.589Z,67.16
2018-04-08T06:26:27.675Z,65.73
2018-04-08T06:27:27.756Z,65.00
2018-04-08T06:28:27.861Z,64.81
2018-04-08T06:29:27.942Z,63.57
2018-04-08T06:30:28.029Z,63.32
2018-04-08T06:31:28.115Z,62.65
2018-04-08T06:32:28.198Z,61.51
2018-04-08T06:33:28.283Z,61.35
2018-04-08T06:34:28.387Z,60.30
2018-04-08T06:35:28.476Z,59.44
2018-04-08T06:36:28.576Z,59.28
2018-04-08T06:37:28.665Z,58.33
2018-04-08T06:38:28.747Z,57.68
2018-04-08T06:39:28.840Z,56.73
2018-04-08T06:40:28.945Z,56.16
2018-04-08T06:41:29.079Z,55.77
2018-04-08T06:42:29.187Z,55.32
2018-04-08T06:43:29.275Z,55.42
2018-04-08T06:44:29.367Z,54.97
2018-04-08T06:45:29.463Z,54.59
2018-04-08T06:46:29.551Z,53.73
2018-04-08T06:47:29.636Z,53.34
2018-04-08T06:48:29.735Z,52.87
2018-04-08T06:49:29.900Z,52.96
2018-04-08T06:50:29.966Z,52.20
2018-04-08T06:51:30.044Z,52.48
2018-04-08T06:52:30.140Z,52.32
2018-04-08T06:53:30.237Z,52.42
2018-04-08T06:54:30.338Z,51.84
2018-04-08T06:55:30.442Z,51.07
2018-04-08T06:56:30.617Z,51.01
2018-04-08T06:57:30.591Z,50.62
2018-04-08T06:58:30.694Z,50.34
2018-04-08T06:59:30.783Z,50.43
2018-04-08T07:00:30.883Z,50.52
2018-04-08T07:01:30.979Z,50.05
2018-04-08T07:02:31.078Z,50.43
2018-04-08T07:03:31.166Z,50.50
2018-04-08T07:04:31.274Z,51.46
2018-04-08T07:05:31.433Z,51.65
2018-04-08T07:06:31.444Z,51.07
2018-04-08T07:07:31.611Z,51.07
2018-04-08T07:08:31.681Z,50.24
2018-04-08T07:09:31.777Z,50.43
2018-04-08T07:10:31.949Z,50.07
2018-04-08T07:11:31.941Z,49.21
2018-04-08T07:12:32.032Z,49.11
2018-04-08T07:13:32.125Z,49.40
2018-04-08T07:14:32.228Z,48.44
2018-04-08T07:15:32.331Z,48.57
2018-04-08T07:16:32.425Z,48.83
2018-04-08T07:17:32.521Z,48.54
2018-04-08T07:18:32.698Z,48.35
2018-04-08T07:19:32.749Z,48.44
2018-04-08T07:20:32.850Z,49.11
2018-04-08T07:21:32.996Z,49.79
2018-04-08T07:22:33.088Z,49.88
2018-04-08T07:23:33.184Z,49.88
2018-04-08T07:24:33.292Z,50.72
2018-04-08T07:25:33.383Z,50.91
2018-04-08T07:26:33.505Z,51.10
2018-04-08T07:27:33.584Z,52.25
2018-04-08T07:28:33.678Z,52.15
2018-04-08T07:29:33.777Z,51.65
2018-04-08T07:30:33.946Z,51.56
2018-04-08T07:31:34.046Z,52.03
2018-04-08T07:32:34.153Z,51.36
2018-04-08T07:33:34.282Z,51.27
2018-04-08T07:34:34.389Z,51.36
2018-04-08T07:35:34.485Z,51.75
2018-04-08T07:36:34.577Z,51.36
2018-04-08T07:37:34.724Z,51.27
2018-04-08T07:38:34.827Z,52.13
2018-04-08T07:39:34.940Z,51.65
2018-04-08T07:40:35.037Z,51.27
2018-04-08T07:41:35.132Z,51.46
2018-04-08T07:42:35.256Z,52.61
2018-04-08T07:43:35.357Z,53.18
2018-04-08T07:44:35.473Z,53.37
2018-04-08T07:45:35.592Z,53.37
2018-04-08T07:46:35.696Z,53.75
2018-04-08T07:47:35.787Z,53.75
2018-04-08T07:48:35.887Z,53.66
2018-04-08T07:49:35.973Z,53.66
2018-04-08T07:50:36.070Z,53.66
2018-04-08T07:51:36.165Z,54.23
2018-04-08T07:52:36.270Z,53.66
2018-04-08T07:53:36.366Z,54.23
2018-04-08T07:54:36.475Z,54.04
2018-04-08T07:55:36.575Z,53.85
2018-04-08T07:56:36.677Z,53.75
2018-04-08T07:57:36.782Z,53.37
2018-04-08T07:58:36.898Z,53.59
2018-04-08T07:59:36.997Z,53.30
2018-04-08T08:00:37.096Z,53.30
2018-04-08T08:01:37.179Z,53.78
2018-04-08T08:02:37.268Z,55.41
2018-04-08T08:03:37.382Z,54.55
2018-04-08T08:04:37.524Z,54.45
2018-04-08T08:05:37.624Z,54.64
2018-04-08T08:06:37.721Z,54.36
2018-04-08T08:07:37.820Z,54.64
2018-04-08T08:08:37.921Z,54.45
2018-04-08T08:09:38.040Z,54.74
2018-04-08T08:10:38.139Z,54.16
2018-04-08T08:11:38.232Z,53.78
2018-04-08T08:12:38.334Z,53.11
2018-04-08T08:13:38.436Z,53.42
2018-04-08T08:14:38.530Z,52.56
2018-04-08T08:15:38.628Z,53.33
2018-04-08T08:16:38.725Z,52.75
2018-04-08T08:17:38.822Z,52.75
2018-04-08T08:18:38.918Z,53.04
2018-04-08T08:19:39.014Z,53.14
2018-04-08T08:20:39.115Z,52.75
2018-04-08T08:21:39.214Z,52.56
2018-04-08T08:22:39.311Z,52.75
2018-04-08T08:23:39.470Z,52.66
2018-04-08T08:24:39.507Z,51.99
2018-04-08T08:25:39.603Z,52.37
2018-04-08T08:26:39.701Z,52.11
2018-04-08T08:27:39.800Z,52.09
2018-04-08T08:28:39.896Z,52.11
2018-04-08T08:29:39.997Z,52.50
2018-04-08T08:30:40.094Z,52.40
2018-04-08T08:31:40.181Z,51.44
2018-04-08T08:32:40.285Z,51.34
2018-04-08T08:33:40.378Z,51.73
2018-04-08T08:34:40.471Z,52.11
2018-04-08T08:35:40.568Z,51.54
2018-04-08T08:36:40.683Z,51.15
2018-04-08T08:37:40.779Z,51.06
2018-04-08T08:38:40.874Z,51.15
2018-04-08T08:39:40.974Z,50.89
2018-04-08T08:40:41.072Z,51.65
2018-04-08T08:41:41.173Z,50.60
2018-04-08T08:42:41.264Z,50.77
2018-04-08T08:43:41.403Z,50.70
2018-04-08T08:44:41.457Z,50.70
2018-04-08T08:45:41.557Z,49.55
2018-04-08T08:46:41.655Z,50.12
2018-04-08T08:47:41.754Z,50.60
2018-04-08T08:48:41.856Z,50.22
2018-04-08T08:49:41.957Z,49.48
2018-04-08T08:50:42.039Z,49.84
2018-04-08T08:51:42.150Z,50.63
2018-04-08T08:52:42.245Z,49.57
2018-04-08T08:53:42.345Z,48.33
2018-04-08T08:54:42.444Z,47.66
2018-04-08T08:55:42.543Z,46.89
2018-04-08T08:56:42.642Z,46.53
2018-04-08T08:57:42.736Z,46.43
2018-04-08T08:58:42.831Z,46.70
2018-04-08T08:59:42.929Z,46.91
2018-04-08T09:00:43.032Z,47.39
2018-04-08T09:01:43.129Z,48.07
2018-04-08T09:02:43.229Z,48.16
2018-04-08T09:03:43.330Z,48.07
2018-04-08T09:04:43.432Z,48.07
2018-04-08T09:05:43.531Z,48.25
2018-04-08T09:06:43.693Z,47.89
2018-04-08T09:07:43.727Z,47.99
2018-04-08T09:08:43.823Z,47.13
2018-04-08T09:09:43.928Z,46.45
2018-04-08T09:10:44.029Z,46.55
2018-04-08T09:11:44.124Z,46.65
2018-04-08T09:12:44.229Z,46.36
2018-04-08T09:13:44.321Z,46.26
2018-04-08T09:14:44.420Z,46.26
2018-04-08T09:15:44.518Z,46.17
2018-04-08T09:16:44.616Z,45.71
2018-04-08T09:17:44.742Z,46.45
2018-04-08T09:18:44.840Z,46.38
2018-04-08T09:19:44.938Z,46.48
2018-04-08T09:20:45.035Z,45.90
2018-04-08T09:21:45.134Z,46.09
2018-04-08T09:22:45.231Z,46.09
2018-04-08T09:23:45.332Z,45.90
2018-04-08T09:24:45.446Z,46.38
2018-04-08T09:25:45.565Z,46.00
2018-04-08T09:26:45.684Z,46.00
2018-04-08T09:27:45.762Z,46.38
2018-04-08T09:28:45.863Z,46.48
2018-04-08T09:29:45.959Z,45.81
2018-04-08T09:32:18.023Z,46.09
2018-04-08T09:33:18.123Z,46.09
2018-04-08T09:34:18.219Z,45.73
2018-04-08T09:35:18.323Z,45.42
2018-04-08T09:36:18.481Z,46.50
2018-04-08T09:37:18.519Z,46.98
2018-04-08T09:38:18.626Z,45.83
2018-04-08T09:39:18.721Z,45.64
2018-04-08T09:40:18.823Z,45.73
2018-04-08T09:41:18.914Z,45.92
2018-04-08T09:42:19.016Z,46.79
2018-04-08T09:43:19.106Z,46.98
2018-04-08T09:44:19.213Z,47.27
2018-04-08T09:45:19.316Z,46.98
2018-04-08T09:46:19.407Z,46.59
2018-04-08T09:47:19.515Z,45.83
2018-04-08T09:48:19.611Z,45.83
2018-04-08T09:49:19.711Z,45.66
2018-04-08T09:50:19.809Z,45.66
2018-04-08T09:51:19.908Z,45.76
2018-04-08T09:52:20.010Z,46.62
2018-04-08T09:53:20.109Z,46.04
2018-04-08T09:54:20.211Z,44.14
2018-04-08T09:55:20.343Z,43.47
2018-04-08T09:56:20.414Z,43.47
2018-04-08T09:57:20.518Z,42.99
2018-04-08T09:58:20.621Z,43.37
2018-04-08T09:59:20.721Z,43.37
2018-04-08T10:00:20.824Z,43.66
2018-04-08T10:01:20.926Z,43.57
2018-04-08T10:02:21.012Z,43.37
2018-04-08T10:03:21.110Z,43.47
2018-04-08T10:04:21.217Z,43.57
2018-04-08T10:05:21.312Z,43.88
2018-04-08T10:06:21.411Z,43.49
2018-04-08T10:07:21.524Z,43.49
2018-04-08T10:08:21.628Z,43.97
2018-04-08T10:09:21.728Z,45.03
2018-04-08T10:10:21.827Z,44.74
2018-04-08T10:11:21.927Z,44.07
2018-04-08T10:12:22.032Z,43.97
2018-04-08T10:13:22.139Z,43.71
2018-04-08T10:14:22.258Z,43.80
2018-04-08T10:15:22.349Z,43.71
2018-04-08T10:16:22.460Z,43.90
2018-04-08T10:17:22.555Z,42.84
2018-04-08T10:18:22.684Z,42.36
2018-04-08T10:19:22.791Z,42.55
2018-04-08T10:20:22.890Z,43.23
2018-04-08T10:21:23.032Z,43.51
2018-04-08T10:22:23.113Z,43.71
2018-04-08T10:23:23.218Z,43.51
2018-04-08T10:24:23.332Z,43.13
2018-04-08T10:25:23.445Z,42.74
2018-04-08T10:26:23.543Z,42.36
2018-04-08T10:27:23.652Z,43.30
2018-04-08T10:28:23.771Z,43.01
2018-04-08T10:29:23.887Z,42.74
2018-04-08T10:30:24.004Z,42.74
2018-04-08T10:31:24.121Z,42.65
2018-04-08T10:32:24.211Z,42.72
2018-04-08T10:33:24.313Z,43.40
2018-04-08T10:34:24.410Z,43.37
2018-04-08T10:35:24.507Z,43.47
2018-04-08T10:36:24.659Z,44.91
2018-04-08T10:37:24.713Z,45.49
2018-04-08T10:38:24.813Z,45.20
2018-04-08T10:39:24.918Z,44.82
2018-04-08T10:40:25.052Z,43.88
2018-04-08T10:41:25.162Z,43.30
2018-04-08T10:42:25.252Z,43.49
2018-04-08T10:43:25.356Z,43.40
2018-04-08T10:44:25.470Z,42.84
2018-04-08T10:45:25.564Z,42.36
2018-04-08T10:46:25.653Z,42.16
2018-04-08T10:47:25.777Z,43.03
2018-04-08T10:48:25.868Z,43.23
2018-04-08T10:49:25.971Z,43.32
2018-04-08T10:50:26.083Z,43.61
2018-04-08T10:51:26.182Z,43.03
2018-04-08T10:52:26.286Z,42.38
2018-04-08T10:53:26.387Z,42.67
2018-04-08T10:54:26.498Z,43.15
2018-04-08T10:55:26.612Z,42.09
2018-04-08T10:56:26.722Z,41.80
2018-04-08T10:57:26.852Z,41.24
2018-04-08T10:58:26.950Z,41.34
2018-04-08T10:59:27.042Z,42.30
2018-04-08T11:00:27.157Z,41.14
2018-04-08T11:01:27.269Z,41.14
2018-04-08T11:02:27.374Z,41.22
2018-04-08T11:03:27.480Z,41.22
2018-04-08T11:04:27.584Z,41.72
2018-04-08T11:05:27.675Z,42.02
2018-04-08T11:06:27.791Z,42.40
2018-04-08T11:07:27.893Z,41.24
2018-04-08T11:08:28.003Z,40.69
2018-04-08T11:09:28.104Z,40.30
2018-04-08T11:10:28.205Z,40.01
2018-04-08T11:11:28.315Z,40.49
2018-04-08T11:12:28.412Z,40.01
2018-04-08T11:13:28.520Z,40.11
2018-04-08T11:14:28.622Z,40.30
2018-04-08T11:15:28.737Z,38.56
2018-04-08T11:16:28.834Z,38.39
2018-04-08T11:17:28.938Z,37.91
2018-04-08T11:18:29.041Z,37.91
2018-04-08T11:19:29.139Z,37.52
2018-04-08T11:20:29.242Z,38.01
2018-04-08T11:21:29.347Z,38.20
2018-04-08T11:22:29.455Z,38.49
2018-04-08T11:23:29.549Z,37.81
2018-04-08T11:24:29.651Z,37.81
2018-04-08T11:25:29.754Z,37.81
2018-04-08T11:26:29.853Z,37.83
2018-04-08T11:27:29.955Z,38.31
2018-04-08T11:28:30.064Z,38.60
2018-04-08T11:29:30.164Z,38.70
2018-04-08T11:30:30.274Z,38.79
2018-04-08T11:31:30.393Z,37.54
2018-04-08T11:32:30.476Z,37.25
2018-04-08T11:33:30.575Z,37.25
2018-04-08T11:34:30.673Z,38.41
2018-04-08T11:37:22.992Z,38.02
2018-04-08T11:38:23.090Z,37.63
2018-04-08T11:39:23.180Z,35.61
2018-04-08T11:40:23.281Z,36.29
2018-04-08T11:41:23.388Z,36.67
2018-04-08T11:42:23.485Z,36.19
2018-04-08T11:43:23.594Z,35.61
2018-04-08T11:44:23.691Z,35.71
2018-04-08T11:45:23.803Z,36.00
2018-04-08T11:46:23.909Z,36.29
2018-04-08T11:47:24.001Z,35.32
2018-04-08T11:48:24.101Z,35.80
2018-04-08T11:49:24.192Z,35.78
2018-04-08T11:50:24.291Z,36.65
2018-04-08T11:51:24.378Z,36.46
2018-04-08T11:52:24.519Z,36.55
2018-04-08T11:53:24.577Z,36.57
2018-04-08T11:54:24.682Z,37.35
2018-04-08T11:55:24.803Z,37.54
2018-04-08T11:56:24.898Z,37.15
2018-04-08T11:57:24.995Z,37.15
2018-04-08T11:58:25.397Z,37.46
2018-04-08T11:59:25.257Z,36.98
2018-04-08T12:00:25.363Z,36.01
2018-04-08T12:01:25.469Z,36.61
2018-04-08T12:02:25.566Z,37.56
2018-04-08T12:03:25.659Z,36.01
2018-04-08T12:04:25.761Z,35.34
2018-04-08T12:05:25.870Z,35.24
2018-04-08T12:06:25.963Z,35.44
2018-04-08T12:07:26.065Z,35.74
2018-04-08T12:08:26.165Z,34.87
2018-04-08T12:09:26.267Z,35.06
2018-04-08T12:10:26.369Z,34.87
2018-04-08T12:11:26.474Z,35.26
2018-04-08T12:12:26.577Z,35.45
2018-04-08T12:13:26.679Z,35.08
2018-04-08T12:14:26.775Z,35.28
2018-04-08T12:15:26.870Z,35.95
2018-04-08T12:16:26.959Z,35.28
2018-04-08T12:17:27.062Z,35.47
2018-04-08T12:18:27.174Z,35.47
2018-04-08T12:19:27.277Z,35.66
2018-04-08T12:20:27.387Z,34.79
2018-04-08T12:21:27.479Z,33.92
2018-04-08T12:22:27.586Z,33.73
2018-04-08T12:23:27.690Z,33.26
2018-04-08T12:24:27.795Z,32.87
2018-04-08T12:25:27.898Z,33.54
2018-04-08T12:26:27.998Z,33.15
2018-04-08T12:27:28.107Z,33.44
2018-04-08T12:28:28.214Z,32.28
2018-04-08T12:29:28.320Z,32.47
2018-04-08T12:30:28.420Z,32.28
2018-04-08T12:31:28.522Z,31.22
2018-04-08T12:32:28.627Z,31.31
2018-04-08T12:33:28.741Z,30.65
2018-04-08T12:34:28.865Z,32.20
2018-04-08T12:35:28.967Z,32.97
2018-04-08T12:36:29.074Z,31.71
2018-04-08T12:37:29.176Z,31.91
2018-04-08T12:38:29.281Z,31.62
2018-04-08T12:39:29.391Z,31.33
2018-04-08T12:40:29.493Z,30.57
2018-04-08T12:41:29.598Z,30.65
2018-04-08T12:42:29.694Z,31.15
2018-04-08T12:43:29.824Z,30.38
2018-04-08T12:44:29.902Z,29.99
2018-04-08T12:45:29.996Z,30.18
2018-04-08T12:46:30.102Z,30.66
2018-04-08T12:47:30.209Z,31.54
2018-04-08T12:48:30.314Z,31.34
2018-04-08T12:49:30.418Z,30.28
2018-04-08T12:50:30.527Z,30.57
2018-04-08T12:51:30.635Z,31.15
2018-04-08T12:52:30.731Z,30.38
2018-04-08T12:53:30.831Z,30.08
2018-04-08T12:54:30.945Z,32.60
2018-04-08T12:55:31.031Z,31.15
2018-04-08T12:56:31.186Z,30.38
2018-04-08T12:57:31.284Z,29.90